This is the latest recevied weather packets stored in our database for station/object K1BES. If no packets are shown the sender has not sent any weather packets the latest 10 day(s).
| Time | Temp. | Humidity | Pressure | Rain* | Wind** | Luminosity | Snow |
|---|---|---|---|---|---|---|---|
| 1787512454 | 27.78° C | 85% | 1018.8 hPa | 0 mm | - | 221 W/m² | - |
| 1787512148 | 27.78° C | 85% | 1018.8 hPa | 0 mm | - | 187 W/m² | - |
| 1787511843 | 27.78° C | 87% | 1018.8 hPa | 0 mm | - | 147 W/m² | - |
| 1787511543 | 27.22° C | 88% | 1019 hPa | 0 mm | - | 149 W/m² | - |
| 1787511242 | 27.22° C | 90% | 1018.9 hPa | 0 mm | - | 128 W/m² | - |
| 1787510942 | 27.22° C | 90% | 1018.8 hPa | 0 mm | - | 122 W/m² | - |
| 1787510637 | 27.22° C | 90% | 1018.9 hPa | 0 mm | - | 167 W/m² | - |
| 1787510333 | 26.67° C | 90% | 1019 hPa | 0 mm | - | 190 W/m² | - |
| 1787510029 | 26.67° C | 90% | 1019.1 hPa | 0 mm | - | 182 W/m² | - |
| 1787509724 | 26.67° C | 88% | 1019.1 hPa | 0 mm | - | 128 W/m² | - |
| 1787509421 | 26.11° C | 87% | 1019.1 hPa | 1.27 mm | - | 210 W/m² | - |
| 1787509116 | 26.67° C | 86% | 1019.1 hPa | 6.1 mm | - | 413 W/m² | - |
| 1787508812 | 27.78° C | 81% | 1018.9 hPa | 4.83 mm | - | 340 W/m² | - |
| 1787508512 | 29.44° C | 69% | 1019.1 hPa | 0 mm | - | 114 W/m² | - |
| 1787508209 | 30° C | 69% | 1019.2 hPa | 0 mm | - | 122 W/m² | - |
| 1787507904 | 32.22° C | 66% | 1019.1 hPa | 0 mm | - | 83 W/m² | - |
| 1787507600 | 33.89° C | 62% | 1019.2 hPa | 0 mm | - | 347 W/m² | - |
| 1787507296 | 33.89° C | 63% | 1018.9 hPa | 0 mm | - | 957 W/m² | - |
| 1787506991 | 33.89° C | 63% | 1018.9 hPa | 0 mm | - | 840 W/m² | - |
| 1787506687 | 34.44° C | 61% | 1019.1 hPa | 0 mm | - | 594 W/m² | - |
| 1787506384 | 34.44° C | 61% | 1018.9 hPa | 0 mm | - | 901 W/m² | - |
| 1787506079 | 34.44° C | 58% | 1019 hPa | 0 mm | - | 920 W/m² | - |
| 1787505774 | 34.44° C | 57% | 1018.9 hPa | 0 mm | - | 1054 W/m² | - |
| 1787505469 | 33.89° C | 61% | 1019.1 hPa | 0 mm | - | 1168 W/m² | - |
| 1787505164 | 33.89° C | 60% | 1019.1 hPa | 0 mm | - | 698 W/m² | - |
* Rain latest hour (hover to see other rain measurements)
** Current wind speed in m/s (hover to see current wind gust speed)